Time;durP1;ratioP1;P1;durP2;ratioP2;P2;SDS_P1;SDS_P2;PMS_P1;PMS_P2;Temp;Humidity;BMP_temperature;BMP_pressure;BME280_temperature;BME280_humidity;BME280_pressure;Samples;Min_cycle;Max_cycle;Signal;HPM_P1;HPM_P2
2021/04/19 04:00:37;;;;;;;21.30;19.00;;;8.10;99.90;;;;;;5883674;23;20899;-67
2021/04/19 04:03:04;;;;;;;20.90;18.20;;;8.00;99.90;;;;;;4974912;28;20469;-70
2021/04/19 04:05:31;;;;;;;22.83;20.37;;;8.00;99.90;;;;;;4975092;28;20451;-70
2021/04/19 04:07:58;;;;;;;21.47;18.67;;;8.00;99.90;;;;;;4975283;28;20458;-69
2021/04/19 04:10:24;;;;;;;24.70;19.37;;;8.00;99.90;;;;;;4975182;28;20482;-69
2021/04/19 04:12:51;;;;;;;22.97;18.80;;;8.00;99.90;;;;;;4974965;28;20454;-69
2021/04/19 04:15:18;;;;;;;22.60;20.27;;;8.10;99.90;;;;;;4975305;28;21031;-68
2021/04/19 04:17:46;;;;;;;21.50;19.30;;;8.10;99.90;;;;;;4975321;28;20554;-69
2021/04/19 04:20:13;;;;;;;22.23;19.67;;;8.10;99.90;;;;;;4975295;28;20459;-70
2021/04/19 04:22:40;;;;;;;25.80;18.80;;;8.10;99.90;;;;;;4975107;28;20461;-69
2021/04/19 04:25:07;;;;;;;30.30;19.40;;;8.20;99.90;;;;;;4975475;28;20459;-69
2021/04/19 04:27:34;;;;;;;24.67;19.33;;;8.20;99.90;;;;;;4974722;28;20816;-69
2021/04/19 04:30:00;;;;;;;21.37;18.27;;;8.20;99.90;;;;;;4975369;28;20459;-69
2021/04/19 04:32:26;;;;;;;23.23;20.83;;;8.30;99.90;;;;;;4975170;28;20509;-69
2021/04/19 04:34:53;;;;;;;22.40;19.60;;;8.20;99.90;;;;;;4975048;28;20822;-69
2021/04/19 04:37:19;;;;;;;23.63;19.63;;;8.30;99.90;;;;;;4975023;28;20459;-69
2021/04/19 04:39:45;;;;;;;22.13;19.97;;;8.20;99.90;;;;;;4975051;28;20454;-69
2021/04/19 04:42:14;;;;;;;20.93;18.60;;;8.20;99.90;;;;;;4974995;28;20843;-70
2021/04/19 04:44:45;;;;;;;23.13;19.60;;;8.20;99.90;;;;;;4975157;28;20832;-70
2021/04/19 04:47:25;;;;;;;22.83;20.07;;;8.20;99.90;;;;;;4974979;28;20443;-68
2021/04/19 04:50:02;;;;;;;21.70;19.50;;;8.20;99.90;;;;;;4975012;28;20439;-68
2021/04/19 04:52:36;;;;;;;23.00;20.33;;;8.20;99.90;;;;;;4975022;28;20536;-70
2021/04/19 04:55:03;;;;;;;21.47;18.90;;;8.20;99.90;;;;;;4974519;28;20918;-69
2021/04/19 04:57:30;;;;;;;24.50;19.27;;;8.10;99.90;;;;;;4974788;28;20469;-69
2021/04/19 04:59:58;;;;;;;24.97;20.63;;;8.00;99.90;;;;;;4975063;28;20513;-70
2021/04/19 05:02:25;;;;;;;24.40;20.60;;;8.00;99.90;;;;;;4974256;28;20937;-69
2021/04/19 05:04:53;;;;;;;21.97;19.53;;;8.00;99.90;;;;;;4974162;28;20455;-68
2021/04/19 05:07:21;;;;;;;29.77;21.43;;;7.90;99.90;;;;;;4974409;28;20459;-69
2021/04/19 05:09:48;;;;;;;21.97;19.73;;;7.90;99.90;;;;;;4975986;28;20458;-69
2021/04/19 05:12:16;;;;;;;24.73;20.43;;;7.90;99.90;;;;;;4977792;28;20482;-68
2021/04/19 05:14:55;;;;;;;21.17;18.43;;;7.80;99.90;;;;;;4977552;28;20976;-70
2021/04/19 05:17:21;;;;;;;31.47;22.07;;;7.90;99.90;;;;;;4977792;28;20516;-68
2021/04/19 05:19:47;;;;;;;26.23;22.83;;;7.80;99.90;;;;;;4977705;28;20458;-69
2021/04/19 05:22:13;;;;;;;28.17;22.47;;;7.60;99.90;;;;;;4977720;28;20470;-70
2021/04/19 05:24:41;;;;;;;28.17;24.67;;;7.40;99.90;;;;;;4977886;28;20465;-69
2021/04/19 05:27:08;;;;;;;30.20;24.37;;;7.30;99.90;;;;;;4977736;28;20450;-69
2021/04/19 05:29:36;;;;;;;30.20;24.17;;;7.30;99.90;;;;;;4978049;28;20450;-68
2021/04/19 05:32:02;;;;;;;31.90;25.57;;;7.20;99.90;;;;;;4977182;28;20470;-68
2021/04/19 05:34:29;;;;;;;25.97;23.27;;;7.20;99.90;;;;;;4977731;28;20462;-69
2021/04/19 05:36:56;;;;;;;25.23;22.57;;;7.20;99.90;;;;;;4977622;28;20454;-69
2021/04/19 05:39:23;;;;;;;32.53;24.13;;;7.20;99.90;;;;;;4977405;28;20485;-69
2021/04/19 05:41:51;;;;;;;30.97;23.77;;;7.10;99.90;;;;;;4976922;28;20966;-70
2021/04/19 05:44:18;;;;;;;26.93;21.90;;;7.10;99.90;;;;;;4977321;28;20461;-70
2021/04/19 05:46:44;;;;;;;26.90;23.17;;;7.10;99.90;;;;;;4977246;28;20455;-69
2021/04/19 05:49:11;;;;;;;25.53;22.80;;;7.10;99.90;;;;;;4977312;28;20450;-69
2021/04/19 05:51:42;;;;;;;32.73;22.70;;;7.10;99.90;;;;;;4977081;28;21035;-68
2021/04/19 05:54:09;;;;;;;28.50;22.37;;;7.20;99.90;;;;;;4977202;28;20446;-69
2021/04/19 05:57:00;;;;;;;30.10;24.10;;;7.20;99.90;;;;;;4977168;28;20458;-69
2021/04/19 05:59:41;;;;;;;30.67;24.60;;;7.10;99.90;;;;;;4977081;28;20505;-69
2021/04/19 06:02:09;;;;;;;28.87;22.83;;;7.10;99.90;;;;;;4976561;28;21059;-69
2021/04/19 06:04:40;;;;;;;31.10;23.30;;;7.10;99.90;;;;;;4976998;28;20459;-69
2021/04/19 06:07:12;;;;;;;34.57;25.00;;;7.20;99.90;;;;;;4977808;28;20443;-69
2021/04/19 06:09:43;;;;;;;28.17;24.17;;;7.30;99.90;;;;;;4976871;28;20922;-69
2021/04/19 06:12:12;;;;;;;33.13;23.77;;;7.30;99.90;;;;;;4977011;28;20486;-70
2021/04/19 06:14:43;;;;;;;30.70;23.77;;;7.30;99.90;;;;;;4976667;28;20510;-69
2021/04/19 06:17:11;;;;;;;28.00;23.17;;;7.40;99.90;;;;;;4976502;28;20941;-69
2021/04/19 06:19:42;;;;;;;30.90;23.60;;;7.40;99.90;;;;;;4976736;28;20572;-70
2021/04/19 06:22:09;;;;;;;30.27;25.00;;;7.30;99.90;;;;;;4976279;28;20923;-68
2021/04/19 06:24:35;;;;;;;26.00;23.20;;;7.30;99.90;;;;;;4976704;28;20464;-70
2021/04/19 06:27:01;;;;;;;27.57;23.60;;;7.40;99.90;;;;;;4976707;28;20467;-69
2021/04/19 06:29:28;;;;;;;31.57;24.53;;;7.40;99.90;;;;;;4976658;28;20454;-70
2021/04/19 06:31:58;;;;;;;26.60;22.70;;;7.30;99.90;;;;;;4976454;28;20482;-70
2021/04/19 06:34:24;;;;;;;27.23;23.23;;;7.40;99.90;;;;;;4976457;28;20454;-69
2021/04/19 06:36:51;;;;;;;30.10;24.57;;;7.30;99.90;;;;;;4976495;28;20458;-70
2021/04/19 06:39:19;;;;;;;32.03;24.70;;;7.40;99.90;;;;;;4976301;28;20479;-69
2021/04/19 06:41:46;;;;;;;28.10;23.53;;;7.40;99.90;;;;;;4977120;28;20814;-70
2021/04/19 06:44:14;;;;;;;26.60;23.33;;;7.50;99.90;;;;;;4976413;28;20463;-69
2021/04/19 06:46:42;;;;;;;34.20;23.80;;;7.60;99.90;;;;;;4976946;28;20461;-69
2021/04/19 06:49:12;;;;;;;26.67;22.97;;;7.60;99.90;;;;;;4982599;28;20541;-69
2021/04/19 06:51:39;;;;;;;29.03;22.50;;;7.70;99.90;;;;;;4986097;28;20500;-69
2021/04/19 06:54:06;;;;;;;36.10;25.30;;;7.70;99.90;;;;;;4986136;28;20816;-69
2021/04/19 06:56:36;;;;;;;32.10;25.70;;;7.60;99.90;;;;;;4986887;28;20488;-69
2021/04/19 06:59:04;;;;;;;29.73;25.20;;;7.40;99.90;;;;;;4981377;28;20467;-69
2021/04/19 07:01:31;;;;;;;35.53;26.83;;;7.30;99.90;;;;;;4976486;28;20581;-69
2021/04/19 07:04:00;;;;;;;32.57;27.70;;;7.10;99.90;;;;;;4976353;28;20462;-68
2021/04/19 07:06:31;;;;;;;36.20;26.70;;;7.10;99.90;;;;;;4976321;28;20458;-68
2021/04/19 07:09:03;;;;;;;34.80;29.00;;;7.10;99.90;;;;;;4978268;28;20443;-68
2021/04/19 07:11:33;;;;;;;32.03;27.40;;;7.10;99.90;;;;;;4980755;28;20482;-68
2021/04/19 07:14:00;;;;;;;36.30;28.13;;;7.30;99.90;;;;;;4981004;28;20582;-67
2021/04/19 07:16:26;;;;;;;35.10;28.40;;;7.30;99.90;;;;;;4979894;28;20979;-67
2021/04/19 07:18:53;;;;;;;37.00;28.70;;;7.30;99.90;;;;;;4980168;28;20475;-68
2021/04/19 07:21:19;;;;;;;32.20;27.20;;;7.30;99.90;;;;;;4978856;28;20481;-67
2021/04/19 07:23:46;;;;;;;35.60;30.10;;;7.30;99.90;;;;;;4978871;28;20459;-67
2021/04/19 07:26:13;;;;;;;36.43;29.00;;;7.30;99.90;;;;;;4978675;28;20454;-67
2021/04/19 07:28:39;;;;;;;38.50;29.40;;;7.30;99.90;;;;;;4978654;28;20462;-68
2021/04/19 07:31:06;;;;;;;37.60;29.80;;;7.30;99.90;;;;;;4979822;28;20475;-67
2021/04/19 07:33:35;;;;;;;34.50;28.20;;;7.40;99.90;;;;;;4978507;28;20867;-67
2021/04/19 07:36:20;;;;;;;32.27;27.73;;;7.40;99.90;;;;;;4978939;28;20869;-67
2021/04/19 07:38:48;;;;;;;33.33;26.40;;;7.40;99.90;;;;;;4981085;28;20474;-67
2021/04/19 07:41:15;;;;;;;35.07;27.40;;;7.40;99.90;;;;;;4979689;28;20479;-66
2021/04/19 07:43:43;;;;;;;35.00;26.17;;;7.50;99.90;;;;;;4976518;28;20466;-66
2021/04/19 07:46:11;;;;;;;34.00;28.40;;;7.50;99.90;;;;;;4975421;28;20458;-66
2021/04/19 07:48:39;;;;;;;30.43;26.93;;;7.40;99.90;;;;;;4975250;28;20458;-65
2021/04/19 07:51:28;;;;;;;33.17;28.17;;;7.40;99.90;;;;;;4975429;28;20524;-65
2021/04/19 07:54:16;;;;;;;34.63;27.70;;;7.50;99.90;;;;;;4975218;28;20449;-66
2021/04/19 07:56:44;;;;;;;29.47;26.13;;;7.50;99.90;;;;;;4975262;28;20458;-66
2021/04/19 07:59:21;;;;;;;28.47;25.23;;;7.40;99.90;;;;;;4976595;28;20474;-65
2021/04/19 08:01:55;;;;;;;32.83;26.87;;;7.50;99.90;;;;;;4977461;28;20980;-66
2021/04/19 08:04:21;;;;;;;30.87;25.80;;;7.50;99.90;;;;;;4977968;28;20442;-66
2021/04/19 08:06:48;;;;;;;30.00;26.83;;;7.60;99.90;;;;;;4978333;28;20822;-66
2021/04/19 08:09:15;;;;;;;29.20;26.03;;;7.50;99.90;;;;;;4978201;28;20888;-68
2021/04/19 08:11:43;;;;;;;33.30;27.07;;;7.60;99.90;;;;;;4977768;28;20868;-66
2021/04/19 08:14:09;;;;;;;27.80;24.37;;;7.70;99.90;;;;;;4978018;28;20465;-66
2021/04/19 08:16:36;;;;;;;30.17;24.33;;;7.70;99.90;;;;;;4977388;28;20458;-66
2021/04/19 08:19:04;;;;;;;32.90;26.97;;;7.80;99.90;;;;;;4977076;28;20467;-66
2021/04/19 08:21:31;;;;;;;29.73;26.53;;;7.80;99.90;;;;;;4976730;28;20486;-66
2021/04/19 08:24:11;;;;;;;31.07;27.00;;;7.90;99.90;;;;;;4975450;28;20458;-65
2021/04/19 08:26:52;;;;;;;35.27;28.77;;;7.90;99.90;;;;;;4975079;28;20438;-66
2021/04/19 08:29:38;;;;;;;30.87;27.23;;;7.90;99.90;;;;;;4974838;28;20455;-65
2021/04/19 08:32:06;;;;;;;32.20;27.97;;;7.90;99.90;;;;;;4974482;28;20989;-66
2021/04/19 08:34:35;;;;;;;37.57;30.40;;;7.90;99.90;;;;;;4974075;28;20451;-66
2021/04/19 08:37:02;;;;;;;35.97;31.37;;;7.90;99.90;;;;;;4974949;28;20455;-65
2021/04/19 08:39:30;;;;;;;37.73;28.87;;;7.90;99.90;;;;;;4976175;28;20489;-65
2021/04/19 08:41:59;;;;;;;32.43;27.80;;;7.90;99.90;;;;;;4977473;28;20475;-65
2021/04/19 08:44:26;;;;;;;33.00;28.30;;;7.90;99.90;;;;;;4977980;28;20459;-66
2021/04/19 08:46:53;;;;;;;36.70;29.43;;;7.90;99.90;;;;;;4980213;28;20493;-65
2021/04/19 08:49:19;;;;;;;35.27;29.70;;;8.00;99.90;;;;;;4979565;28;20450;-66
2021/04/19 08:51:45;;;;;;;37.23;30.93;;;7.80;99.90;;;;;;4978818;28;20529;-66
2021/04/19 08:54:12;;;;;;;40.87;31.20;;;7.90;99.90;;;;;;4978666;28;20530;-65
2021/04/19 08:56:38;;;;;;;34.23;30.53;;;7.90;99.90;;;;;;4978545;28;20455;-65
2021/04/19 08:59:05;;;;;;;42.73;31.90;;;7.90;99.90;;;;;;4978319;28;20482;-65
2021/04/19 09:01:31;;;;;;;40.30;32.20;;;7.90;99.90;;;;;;4977847;28;21009;-66
2021/04/19 09:04:05;;;;;;;39.17;31.87;;;7.90;99.90;;;;;;4978233;28;20462;-65
2021/04/19 09:06:40;;;;;;;40.17;30.80;;;8.00;99.90;;;;;;4978187;28;20509;-64
2021/04/19 09:09:07;;;;;;;40.30;31.23;;;7.90;99.90;;;;;;4977959;28;20521;-65
2021/04/19 09:11:33;;;;;;;43.53;33.13;;;8.00;99.90;;;;;;4978017;28;20475;-65
2021/04/19 09:14:06;;;;;;;37.10;31.10;;;8.00;99.90;;;;;;4977522;28;20454;-65
2021/04/19 09:16:37;;;;;;;38.73;30.50;;;8.00;99.90;;;;;;4977932;28;20556;-64
2021/04/19 09:19:04;;;;;;;34.00;30.00;;;8.20;99.90;;;;;;4977683;28;21000;-65
2021/04/19 09:21:35;;;;;;;38.13;31.10;;;8.20;99.90;;;;;;4977900;28;20506;-64
2021/04/19 09:24:02;;;;;;;37.60;30.60;;;8.10;99.90;;;;;;4978255;28;20876;-64
2021/04/19 09:26:49;;;;;;;35.30;30.20;;;8.10;99.90;;;;;;4978435;28;20816;-64
2021/04/19 09:29:46;;;;;;;40.47;30.87;;;8.20;99.90;;;;;;4978036;28;20457;-65
2021/04/19 09:32:20;;;;;;;34.87;29.13;;;8.30;99.90;;;;;;4881211;29;20475;-66
2021/04/19 09:34:49;;;;;;;39.77;29.53;;;8.40;99.90;;;;;;4960179;28;20462;-65
2021/04/19 09:37:16;;;;;;;32.70;29.37;;;8.40;99.90;;;;;;4978236;28;20446;-66
2021/04/19 09:39:47;;;;;;;34.93;30.40;;;8.50;99.90;;;;;;4977754;28;20529;-65
2021/04/19 09:42:14;;;;;;;37.13;30.33;;;8.50;99.90;;;;;;4977639;28;20486;-64
2021/04/19 09:44:52;;;;;;;35.03;28.37;;;8.60;99.90;;;;;;4977502;28;20461;-65
2021/04/19 09:47:47;;;;;;;33.00;28.53;;;8.70;99.90;;;;;;4977339;28;20458;-65
2021/04/19 09:50:14;;;;;;;32.13;28.17;;;8.70;99.90;;;;;;4977376;28;20506;-65
2021/04/19 09:52:41;;;;;;;30.00;26.73;;;8.70;99.90;;;;;;4976934;28;20968;-64
2021/04/19 09:55:08;;;;;;;35.67;28.53;;;8.70;99.90;;;;;;4976540;28;20972;-65
2021/04/19 09:57:38;;;;;;;35.73;28.17;;;8.80;99.90;;;;;;4976502;28;20459;-66
2021/04/19 10:00:07;;;;;;;37.90;31.80;;;8.90;99.90;;;;;;4977329;28;21000;-66
2021/04/19 10:02:35;;;;;;;30.53;27.30;;;8.90;99.90;;;;;;4976820;28;20491;-64
2021/04/19 10:05:03;;;;;;;33.20;29.37;;;8.80;99.90;;;;;;4976932;28;20454;-65
2021/04/19 10:07:32;;;;;;;36.37;28.93;;;8.80;99.90;;;;;;4976852;28;20817;-65
2021/04/19 10:10:02;;;;;;;31.50;28.10;;;8.80;99.90;;;;;;4977024;28;20489;-65
2021/04/19 10:12:31;;;;;;;38.80;29.23;;;8.90;99.90;;;;;;4976949;28;20478;-65
2021/04/19 10:14:57;;;;;;;30.97;27.67;;;9.00;99.90;;;;;;4976946;28;20458;-64
2021/04/19 10:17:29;;;;;;;30.10;26.73;;;9.00;99.90;;;;;;4976703;28;20546;-65
2021/04/19 10:19:55;;;;;;;33.63;28.30;;;9.00;99.90;;;;;;4976361;28;20955;-65
2021/04/19 10:22:21;;;;;;;32.17;27.23;;;9.00;99.90;;;;;;4976722;28;20810;-66
2021/04/19 10:24:52;;;;;;;31.60;27.40;;;9.00;99.90;;;;;;4976649;28;20459;-65
2021/04/19 10:27:23;;;;;;;32.20;28.33;;;9.00;99.90;;;;;;4976682;28;20458;-66
2021/04/19 10:29:50;;;;;;;29.20;26.07;;;9.00;99.90;;;;;;4977128;28;20446;-65
2021/04/19 10:32:28;;;;;;;30.40;27.20;;;9.00;99.90;;;;;;4977011;28;20474;-65
2021/04/19 10:34:54;;;;;;;30.63;26.13;;;9.10;99.90;;;;;;4977380;28;20443;-66
2021/04/19 10:37:21;;;;;;;29.73;26.73;;;9.10;99.90;;;;;;4976283;28;20954;-65
2021/04/19 10:39:47;;;;;;;28.20;25.23;;;9.20;99.90;;;;;;4976324;28;20486;-65
2021/04/19 10:42:21;;;;;;;33.30;26.10;;;9.20;99.90;;;;;;4976142;28;20490;-65
2021/04/19 10:44:48;;;;;;;29.53;26.33;;;9.20;99.90;;;;;;4976410;28;20438;-65
2021/04/19 10:47:25;;;;;;;28.20;25.17;;;9.30;99.90;;;;;;4976275;28;20455;-65
2021/04/19 10:49:52;;;;;;;28.70;24.97;;;9.30;99.90;;;;;;4976472;28;20512;-66
2021/04/19 10:52:18;;;;;;;29.70;26.20;;;9.40;99.90;;;;;;4976499;28;21004;-65
2021/04/19 10:54:45;;;;;;;28.10;25.17;;;9.50;99.90;;;;;;4976690;28;20459;-64
2021/04/19 10:57:21;;;;;;;27.63;24.77;;;9.60;99.90;;;;;;4976670;28;20459;-65
2021/04/19 10:59:48;;;;;;;28.50;25.60;;;9.80;99.90;;;;;;4976532;28;20535;-65
2021/04/19 11:02:14;;;;;;;28.97;25.87;;;10.00;99.90;;;;;;4976419;28;20490;-65
2021/04/19 11:04:41;;;;;;;27.30;24.50;;;10.10;99.90;;;;;;4975922;28;20524;-65
2021/04/19 11:07:25;;;;;;;29.07;26.00;;;10.10;99.90;;;;;;4975305;28;20958;-65
2021/04/19 11:10:16;;;;;;;27.97;24.83;;;10.10;99.90;;;;;;4977067;28;20451;-66
2021/04/19 11:12:57;;;;;;;32.63;24.97;;;10.10;99.90;;;;;;4975794;28;20446;-65
2021/04/19 11:15:35;;;;;;;30.83;27.37;;;10.10;99.90;;;;;;4975698;28;20442;-66
2021/04/19 11:18:15;;;;;;;28.40;25.00;;;10.30;99.90;;;;;;4975798;28;20913;-66
2021/04/19 11:20:42;;;;;;;28.67;25.57;;;10.30;99.90;;;;;;4975698;28;20479;-66
2021/04/19 11:23:25;;;;;;;31.60;27.07;;;10.00;99.90;;;;;;4975641;28;20455;-66
2021/04/19 11:25:52;;;;;;;28.83;25.50;;;10.20;99.90;;;;;;4975308;28;20446;-66
2021/04/19 11:28:22;;;;;;;33.57;27.03;;;10.20;99.90;;;;;;4975488;28;20454;-65
2021/04/19 11:30:51;;;;;;;33.07;29.50;;;10.20;99.90;;;;;;4975674;28;20581;-64
2021/04/19 11:33:24;;;;;;;30.60;26.00;;;10.20;99.90;;;;;;4975608;28;20485;-65
2021/04/19 11:35:57;;;;;;;31.23;27.90;;;10.10;99.90;;;;;;4975765;28;20489;-65
2021/04/19 11:38:25;;;;;;;31.00;27.80;;;10.10;99.90;;;;;;4975429;28;20462;-65
2021/04/19 11:40:53;;;;;;;31.90;26.87;;;10.10;99.90;;;;;;4975324;28;20479;-66
2021/04/19 11:43:24;;;;;;;37.33;27.80;;;10.20;99.90;;;;;;4976675;28;20459;-66
2021/04/19 11:46:00;;;;;;;33.17;27.00;;;10.20;99.90;;;;;;4976166;28;20455;-66
2021/04/19 11:48:27;;;;;;;30.20;26.90;;;10.30;99.90;;;;;;4975556;28;20971;-66
2021/04/19 11:50:53;;;;;;;40.23;27.90;;;10.50;99.90;;;;;;4975575;28;20479;-66
2021/04/19 11:53:22;;;;;;;30.73;26.33;;;10.60;99.90;;;;;;4974884;28;20818;-65
2021/04/19 11:55:50;;;;;;;31.30;27.67;;;10.70;99.90;;;;;;4975163;28;20467;-65
2021/04/19 11:58:16;;;;;;;29.90;26.00;;;10.50;99.90;;;;;;4975272;28;20461;-66
2021/04/19 12:00:42;;;;;;;28.77;25.67;;;10.60;99.90;;;;;;4974837;28;20486;-65
2021/04/19 12:03:08;;;;;;;28.70;25.33;;;10.70;99.90;;;;;;4974897;28;20458;-65
2021/04/19 12:05:35;;;;;;;29.40;26.20;;;10.60;99.90;;;;;;4975526;28;20451;-66
2021/04/19 12:08:01;;;;;;;29.70;25.83;;;10.60;99.90;;;;;;4975063;28;20469;-65
2021/04/19 12:10:27;;;;;;;28.80;25.40;;;10.70;99.90;;;;;;4974624;28;20937;-65
2021/04/19 12:12:54;;;;;;;29.33;26.20;;;10.70;99.90;;;;;;4975027;28;20459;-65
2021/04/19 12:15:21;;;;;;;27.83;25.00;;;10.80;99.90;;;;;;4975171;28;20458;-65
2021/04/19 12:17:47;;;;;;;28.07;25.07;;;10.90;99.90;;;;;;4975045;28;20454;-65
2021/04/19 12:20:14;;;;;;;26.73;23.93;;;11.00;99.90;;;;;;4974424;28;20478;-65
2021/04/19 12:22:40;;;;;;;26.60;23.80;;;11.00;99.90;;;;;;4974635;28;20454;-65
2021/04/19 12:25:07;;;;;;;25.37;22.80;;;11.10;99.90;;;;;;4974885;28;20462;-66
2021/04/19 12:27:33;;;;;;;26.60;22.77;;;11.20;99.90;;;;;;4974546;28;20968;-65
2021/04/19 12:30:00;;;;;;;26.43;23.80;;;11.30;99.90;;;;;;4974772;28;20457;-65
2021/04/19 12:32:26;;;;;;;24.90;22.33;;;11.40;99.90;;;;;;4974304;28;20822;-66
2021/04/19 12:34:52;;;;;;;23.43;21.13;;;11.50;99.90;;;;;;4974671;28;20450;-65
2021/04/19 12:37:19;;;;;;;24.87;22.40;;;11.30;99.90;;;;;;4974685;28;20439;-65
2021/04/19 12:39:45;;;;;;;24.87;22.17;;;11.50;99.90;;;;;;4974654;28;20535;-65
2021/04/19 12:42:11;;;;;;;21.70;19.10;;;11.70;99.90;;;;;;4974653;28;20471;-64
2021/04/19 12:44:37;;;;;;;19.73;17.73;;;12.00;99.90;;;;;;4974564;28;20506;-67
2021/04/19 12:47:04;;;;;;;19.37;17.57;;;12.30;99.90;;;;;;4974600;28;20455;-67
2021/04/19 12:49:31;;;;;;;20.23;18.23;;;12.20;99.90;;;;;;4974303;28;20942;-67
2021/04/19 12:51:57;;;;;;;21.93;16.73;;;12.20;99.90;;;;;;4974479;28;20563;-67
2021/04/19 12:54:23;;;;;;;18.80;17.00;;;12.20;99.90;;;;;;4974490;28;20458;-67
2021/04/19 12:56:49;;;;;;;22.40;20.10;;;12.30;99.90;;;;;;4974056;28;21000;-67
2021/04/19 12:59:15;;;;;;;21.23;19.30;;;12.30;99.90;;;;;;4974178;28;20489;-67
2021/04/19 13:01:42;;;;;;;23.43;21.03;;;12.50;99.90;;;;;;4973939;28;20482;-68
2021/04/19 13:04:13;;;;;;;22.83;20.50;;;12.50;99.90;;;;;;4974392;28;20458;-68
2021/04/19 13:06:39;;;;;;;18.97;17.17;;;12.60;99.90;;;;;;4974130;28;20949;-67
2021/04/19 13:09:07;;;;;;;21.60;19.30;;;12.40;99.90;;;;;;4973956;28;20459;-68
2021/04/19 13:11:33;;;;;;;21.77;19.67;;;12.40;99.90;;;;;;4974220;28;20493;-67
2021/04/19 13:13:59;;;;;;;22.27;20.17;;;12.20;99.90;;;;;;4974074;28;20450;-67
2021/04/19 13:16:26;;;;;;;22.77;20.53;;;12.10;99.90;;;;;;4974354;28;20481;-67
2021/04/19 13:18:52;;;;;;;21.73;19.53;;;11.80;99.90;;;;;;4974225;28;20478;-67
2021/04/19 13:21:19;;;;;;;22.93;20.57;;;11.90;99.90;;;;;;4973827;28;20522;-67
2021/04/19 13:23:45;;;;;;;21.87;19.67;;;11.80;99.90;;;;;;4974093;28;20462;-67
2021/04/19 13:26:12;;;;;;;21.70;19.53;;;11.70;99.90;;;;;;4974016;28;20861;-68
2021/04/19 13:28:38;;;;;;;24.33;22.03;;;11.70;99.90;;;;;;4974355;28;20500;-69
2021/04/19 13:31:04;;;;;;;21.83;19.63;;;11.80;99.90;;;;;;4974577;28;20478;-67
2021/04/19 13:33:31;;;;;;;22.73;20.43;;;11.80;99.90;;;;;;4977566;28;20467;-67
2021/04/19 13:35:57;;;;;;;23.23;20.30;;;11.90;99.90;;;;;;4977681;28;20462;-67
2021/04/19 13:38:24;;;;;;;20.50;18.37;;;12.00;99.90;;;;;;4977213;28;20459;-67
2021/04/19 13:40:51;;;;;;;19.83;17.97;;;12.10;99.90;;;;;;4977538;28;20474;-67
2021/04/19 13:43:17;;;;;;;18.73;17.00;;;12.10;99.90;;;;;;4977625;28;20550;-67
2021/04/19 13:45:43;;;;;;;17.93;16.17;;;12.20;99.90;;;;;;4977594;28;20459;-68
2021/04/19 13:48:10;;;;;;;16.77;15.23;;;12.10;99.90;;;;;;4977299;28;20458;-67
2021/04/19 13:50:37;;;;;;;16.63;14.93;;;11.90;99.90;;;;;;4977762;28;20538;-69
2021/04/19 13:53:03;;;;;;;14.17;12.63;;;11.80;99.90;;;;;;4977374;28;20511;-68
2021/04/19 13:55:30;;;;;;;13.90;12.47;;;11.80;99.90;;;;;;4977163;28;20461;-67
2021/04/19 13:57:56;;;;;;;13.13;12.00;;;11.80;99.90;;;;;;4977313;28;20466;-68
2021/04/19 14:00:23;;;;;;;12.83;11.67;;;11.90;99.90;;;;;;4976942;28;20479;-69
2021/04/19 14:02:50;;;;;;;14.20;12.90;;;12.10;99.90;;;;;;4977667;28;20443;-67
2021/04/19 14:05:17;;;;;;;14.30;13.00;;;12.00;99.90;;;;;;4977209;28;20446;-69
2021/04/19 14:07:43;;;;;;;13.50;12.30;;;12.00;99.90;;;;;;4976696;28;20466;-68
2021/04/19 14:10:12;;;;;;;13.50;12.30;;;12.00;99.90;;;;;;4977044;28;20466;-68
2021/04/19 14:12:40;;;;;;;14.10;12.90;;;12.10;99.90;;;;;;4976762;28;20561;-69
2021/04/19 14:15:09;;;;;;;15.13;13.77;;;12.20;99.90;;;;;;4977028;28;20458;-70
2021/04/19 14:17:35;;;;;;;17.27;15.77;;;12.30;99.90;;;;;;4976641;28;20819;-69
2021/04/19 14:20:01;;;;;;;17.10;15.50;;;12.50;99.90;;;;;;4976624;28;20544;-69
2021/04/19 14:22:28;;;;;;;18.47;16.67;;;12.30;99.90;;;;;;4976762;28;20486;-69
2021/04/19 14:24:54;;;;;;;17.27;15.60;;;12.60;99.90;;;;;;4976459;28;20941;-69
2021/04/19 14:27:20;;;;;;;14.10;12.70;;;12.70;99.90;;;;;;4976565;28;20454;-69
2021/04/19 14:29:47;;;;;;;13.53;12.23;;;12.90;99.90;;;;;;4976604;28;20454;-69
2021/04/19 14:32:13;;;;;;;14.07;12.77;;;13.00;99.90;;;;;;4976164;28;21008;-69
2021/04/19 14:34:39;;;;;;;12.63;11.53;;;12.90;99.90;;;;;;4976146;28;20950;-69
2021/04/19 14:37:06;;;;;;;14.70;13.30;;;12.80;99.90;;;;;;4976133;28;20455;-68
2021/04/19 14:39:32;;;;;;;11.83;10.83;;;12.90;99.90;;;;;;4976347;28;20478;-69
2021/04/19 14:41:58;;;;;;;13.60;12.40;;;13.00;99.90;;;;;;4976021;28;20532;-69
2021/04/19 14:44:25;;;;;;;13.70;12.33;;;12.90;99.90;;;;;;4976319;28;20486;-68
2021/04/19 14:46:52;;;;;;;16.57;14.87;;;13.10;99.90;;;;;;4976723;28;20509;-68
2021/04/19 14:49:20;;;;;;;18.80;15.50;;;12.70;99.90;;;;;;4976692;28;20461;-69
2021/04/19 14:51:47;;;;;;;19.13;17.27;;;12.90;99.90;;;;;;4975833;28;20478;-69
2021/04/19 14:54:13;;;;;;;21.60;18.67;;;12.80;99.90;;;;;;4976107;28;20478;-69
2021/04/19 14:56:39;;;;;;;21.10;18.50;;;12.60;99.90;;;;;;4976114;28;20462;-69
2021/04/19 14:59:05;;;;;;;21.40;19.20;;;12.60;99.90;;;;;;4976136;28;20474;-69
2021/04/19 15:01:32;;;;;;;22.40;19.47;;;12.60;99.90;;;;;;4975512;28;21001;-69
2021/04/19 15:03:59;;;;;;;24.23;20.13;;;12.60;99.90;;;;;;4975985;28;20945;-69
2021/04/19 15:06:26;;;;;;;23.70;19.50;;;12.50;99.90;;;;;;4975994;28;20816;-69
2021/04/19 15:08:52;;;;;;;25.03;21.30;;;12.60;99.90;;;;;;4975890;28;20450;-69
2021/04/19 15:11:18;;;;;;;28.93;24.07;;;12.50;99.90;;;;;;4975885;28;20485;-69
2021/04/19 15:13:44;;;;;;;30.10;24.00;;;12.30;99.90;;;;;;4975959;28;20458;-70
2021/04/19 15:16:10;;;;;;;30.20;23.70;;;12.40;99.90;;;;;;4985233;28;20454;-69
2021/04/19 15:18:37;;;;;;;33.67;26.47;;;12.30;99.90;;;;;;4985479;28;20818;-69
2021/04/19 15:21:04;;;;;;;30.70;24.60;;;12.10;99.90;;;;;;4986228;28;20478;-69
2021/04/19 15:23:30;;;;;;;31.70;23.90;;;12.30;99.90;;;;;;4976863;28;20455;-70
2021/04/19 15:25:56;;;;;;;28.77;23.43;;;12.30;99.90;;;;;;4976106;28;20465;-70
2021/04/19 15:28:23;;;;;;;28.10;22.93;;;12.30;99.90;;;;;;4975778;28;20454;-68
2021/04/19 15:30:49;;;;;;;29.00;24.30;;;12.40;99.90;;;;;;4975661;28;20494;-69
2021/04/19 15:33:15;;;;;;;29.03;24.10;;;12.60;99.90;;;;;;4975589;28;20447;-69
2021/04/19 15:35:43;;;;;;;26.97;23.17;;;12.70;99.90;;;;;;4975603;28;20455;-69
2021/04/19 15:38:10;;;;;;;30.40;24.00;;;12.70;99.90;;;;;;4975581;28;20889;-70
2021/04/19 15:40:36;;;;;;;29.07;24.73;;;12.70;99.90;;;;;;4975367;28;20841;-70
2021/04/19 15:43:03;;;;;;;28.30;23.97;;;12.60;99.90;;;;;;4975127;28;21008;-70
2021/04/19 15:45:29;;;;;;;31.07;25.63;;;12.60;99.90;;;;;;4975335;28;20506;-70
2021/04/19 15:47:56;;;;;;;26.67;23.20;;;12.30;99.90;;;;;;4975205;28;20462;-70
2021/04/19 15:50:22;;;;;;;26.03;22.27;;;12.40;99.90;;;;;;4974875;28;20498;-70
2021/04/19 15:52:48;;;;;;;31.87;25.50;;;12.40;99.90;;;;;;4974940;28;20462;-70
2021/04/19 15:55:15;;;;;;;28.33;24.80;;;12.40;99.90;;;;;;4974054;28;20470;-70
2021/04/19 15:57:41;;;;;;;29.97;25.23;;;12.30;99.90;;;;;;4974768;28;20954;-71
2021/04/19 16:00:09;;;;;;;32.07;26.37;;;12.30;99.90;;;;;;4974931;28;20489;-70
2021/04/19 16:02:35;;;;;;;31.67;26.97;;;12.10;99.90;;;;;;4974516;28;20544;-70
2021/04/19 16:05:01;;;;;;;30.40;25.30;;;11.80;99.90;;;;;;4974926;28;20455;-70
2021/04/19 16:07:27;;;;;;;31.70;27.50;;;11.70;99.90;;;;;;4974421;28;20455;-69
2021/04/19 16:09:53;;;;;;;27.80;24.27;;;11.80;99.90;;;;;;4975001;28;20451;-69
2021/04/19 16:12:21;;;;;;;28.70;24.60;;;11.90;99.90;;;;;;4974859;28;20485;-69
2021/04/19 16:14:47;;;;;;;33.43;25.87;;;11.90;99.90;;;;;;4974481;28;20454;-69
2021/04/19 16:17:13;;;;;;;31.27;25.73;;;12.00;99.90;;;;;;4974843;28;20478;-70
2021/04/19 16:19:39;;;;;;;30.57;24.63;;;12.00;99.90;;;;;;4974803;28;20479;-70
2021/04/19 16:22:06;;;;;;;30.47;25.77;;;12.00;99.90;;;;;;4974684;28;20483;-70
2021/04/19 16:24:32;;;;;;;31.57;27.00;;;11.80;99.90;;;;;;4974735;28;20454;-69
2021/04/19 16:26:59;;;;;;;34.63;27.10;;;11.70;99.90;;;;;;4974393;28;21015;-69
2021/04/19 16:29:27;;;;;;;36.90;26.73;;;11.70;99.90;;;;;;4974578;28;20954;-68
2021/04/19 16:31:53;;;;;;;33.30;27.20;;;11.70;99.90;;;;;;4974675;28;20479;-70
2021/04/19 16:34:21;;;;;;;31.43;25.70;;;11.70;99.90;;;;;;4976504;28;20461;-69
2021/04/19 16:36:48;;;;;;;32.20;26.00;;;11.70;99.90;;;;;;4974656;28;20443;-69
2021/04/19 16:39:14;;;;;;;31.77;26.20;;;11.60;99.90;;;;;;4975140;28;20482;-70